Startpagina
METAR-TAF:

METAR-TAF

Vliegvelden :

Brussels Airport. Zaventem

Brussel, België

breedte: 50-54N, lengte: 004-32E, hoogte: 55 m

Actueel weer

Dit bericht is 25 minuten geleden gemaakt, om 14:20 UTC
Wind 3 kt uit het oostnoordoosten
Temperatuur 2°C
Vochtigheid 64%
Druk 1017 hPa
Zicht 10 km of meer
geen wolken onder 1500 m en geen cumulonimbus

METAR: EBBR 201420Z 06003KT CAVOK 02/M04 Q1017 NOSIG

Tijdstip: 15:45 (14:45 UTC)

Verwachting

Dit bericht is 3 uur en het 43 minuten geleden gemaakt, om 11:02 UTC
Verwachting geldig van 20 om 12 UTC tot 21 om 18 UTC
Wind 3 kt uit het oostnoordoosten
Zicht 10 km of meer
geen wolken onder 1500 m en geen cumulonimbus
Kans 30% :
Tijdelijke
van 21 om 02 UTC tot 21 om 10 UTC
Zicht: 2000 m
Ondiepe mist

TAF: EBBR 201102Z 2012/2118 07003KT CAVOK PROB30 TEMPO 2102/2110 2000 MIFG

Waarnemingen en weersverwachtingen van meer dan 4000 vliegvelden (METAR en TAF).

De beschikbare stations zijn de gele en rode punten op de kaart.

Ga met uw muis naar het station om de naam te zien.

Klik dan om waarnemingen en weersverwachtingen te zien.

kaart wijzigen: klik op de groene knoppen met een zwart kruis om in te zoomen, op de groene knop met een streepje om uit te zoomen of op de groene pijlen voor aangrenzende kaarten.


METAR-TAF: